sensor_id;sensor_type;location;lat;lon;timestamp;pressure;altitude;pressure_sealevel;temperature;humidity
2875;BME280;1445;52.600;13.328;2023-07-09T00:00:17;101377.91;;;21.62;nan
2875;BME280;1445;52.600;13.328;2023-07-09T00:02:44;101366.59;;;21.58;nan
2875;BME280;1445;52.600;13.328;2023-07-09T00:05:14;101379.09;;;21.61;nan
2875;BME280;1445;52.600;13.328;2023-07-09T00:07:41;101378.47;;;21.52;nan
2875;BME280;1445;52.600;13.328;2023-07-09T00:10:19;101379.25;;;21.68;nan
2875;BME280;1445;52.600;13.328;2023-07-09T00:12:46;101371.94;;;21.63;nan
2875;BME280;1445;52.600;13.328;2023-07-09T00:15:13;101375.00;;;21.74;nan
2875;BME280;1445;52.600;13.328;2023-07-09T00:17:41;101376.28;;;21.77;nan
2875;BME280;1445;52.600;13.328;2023-07-09T00:20:16;101377.00;;;21.74;nan
2875;BME280;1445;52.600;13.328;2023-07-09T00:22:43;101379.53;;;21.79;nan
2875;BME280;1445;52.600;13.328;2023-07-09T00:25:13;101383.63;;;21.81;nan
2875;BME280;1445;52.600;13.328;2023-07-09T00:27:42;101371.56;;;21.81;nan
2875;BME280;1445;52.600;13.328;2023-07-09T00:30:21;101375.28;;;21.85;nan
2875;BME280;1445;52.600;13.328;2023-07-09T00:32:50;101373.28;;;21.85;nan
2875;BME280;1445;52.600;13.328;2023-07-09T00:35:17;101377.19;;;21.81;nan
2875;BME280;1445;52.600;13.328;2023-07-09T00:37:44;101373.28;;;21.85;nan
2875;BME280;1445;52.600;13.328;2023-07-09T00:40:21;101368.69;;;21.77;nan
2875;BME280;1445;52.600;13.328;2023-07-09T00:42:50;101372.75;;;21.64;nan
2875;BME280;1445;52.600;13.328;2023-07-09T00:45:24;101366.75;;;21.65;nan
2875;BME280;1445;52.600;13.328;2023-07-09T00:47:53;101358.44;;;21.69;nan
2875;BME280;1445;52.600;13.328;2023-07-09T00:52:59;101359.25;;;21.54;nan
2875;BME280;1445;52.600;13.328;2023-07-09T00:55:32;101355.09;;;21.48;nan
2875;BME280;1445;52.600;13.328;2023-07-09T00:58:01;101356.28;;;21.47;nan
2875;BME280;1445;52.600;13.328;2023-07-09T01:00:34;101361.25;;;21.53;nan
2875;BME280;1445;52.600;13.328;2023-07-09T01:03:15;101357.16;;;21.51;nan
2875;BME280;1445;52.600;13.328;2023-07-09T01:05:46;101354.81;;;21.37;nan
2875;BME280;1445;52.600;13.328;2023-07-09T01:08:17;101351.03;;;21.45;nan
2875;BME280;1445;52.600;13.328;2023-07-09T01:10:43;101358.88;;;21.39;nan
2875;BME280;1445;52.600;13.328;2023-07-09T01:13:08;101355.63;;;21.37;nan
2875;BME280;1445;52.600;13.328;2023-07-09T01:15:34;101348.03;;;21.38;nan
2875;BME280;1445;52.600;13.328;2023-07-09T01:18:03;101353.28;;;21.39;nan
2875;BME280;1445;52.600;13.328;2023-07-09T01:20:29;101350.94;;;21.41;nan
2875;BME280;1445;52.600;13.328;2023-07-09T01:22:54;101359.44;;;21.45;nan
2875;BME280;1445;52.600;13.328;2023-07-09T01:25:23;101349.06;;;21.33;nan
2875;BME280;1445;52.600;13.328;2023-07-09T01:27:49;101351.66;;;21.38;nan
2875;BME280;1445;52.600;13.328;2023-07-09T01:32:40;101355.28;;;21.39;nan
2875;BME280;1445;52.600;13.328;2023-07-09T01:35:12;101355.28;;;21.39;nan
2875;BME280;1445;52.600;13.328;2023-07-09T01:37:38;101350.25;;;21.32;nan
2875;BME280;1445;52.600;13.328;2023-07-09T01:40:05;101358.34;;;21.34;nan
2875;BME280;1445;52.600;13.328;2023-07-09T01:42:32;101350.53;;;21.27;nan
2875;BME280;1445;52.600;13.328;2023-07-09T01:44:57;101357.66;;;21.25;nan
2875;BME280;1445;52.600;13.328;2023-07-09T01:47:24;101357.91;;;21.19;nan
2875;BME280;1445;52.600;13.328;2023-07-09T01:49:52;101351.97;;;21.21;nan
2875;BME280;1445;52.600;13.328;2023-07-09T01:52:23;101352.69;;;21.18;nan
2875;BME280;1445;52.600;13.328;2023-07-09T01:54:49;101348.97;;;21.14;nan
2875;BME280;1445;52.600;13.328;2023-07-09T01:57:23;101353.78;;;21.13;nan
2875;BME280;1445;52.600;13.328;2023-07-09T01:59:53;101348.59;;;21.15;nan
2875;BME280;1445;52.600;13.328;2023-07-09T02:02:22;101351.06;;;21.17;nan
2875;BME280;1445;52.600;13.328;2023-07-09T02:04:50;101354.78;;;21.21;nan
2875;BME280;1445;52.600;13.328;2023-07-09T02:07:16;101345.00;;;21.15;nan
2875;BME280;1445;52.600;13.328;2023-07-09T02:09:41;101355.72;;;21.13;nan
2875;BME280;1445;52.600;13.328;2023-07-09T02:12:09;101362.19;;;21.13;nan
2875;BME280;1445;52.600;13.328;2023-07-09T02:14:35;101359.09;;;21.03;nan
2875;BME280;1445;52.600;13.328;2023-07-09T02:17:01;101355.63;;;21.09;nan
2875;BME280;1445;52.600;13.328;2023-07-09T02:19:28;101367.69;;;20.82;nan
2875;BME280;1445;52.600;13.328;2023-07-09T02:21:53;101369.31;;;20.83;nan
2875;BME280;1445;52.600;13.328;2023-07-09T02:24:19;101370.09;;;20.67;nan
2875;BME280;1445;52.600;13.328;2023-07-09T02:26:44;101379.09;;;20.61;nan
2875;BME280;1445;52.600;13.328;2023-07-09T02:29:10;101377.66;;;20.67;nan
2875;BME280;1445;52.600;13.328;2023-07-09T02:31:35;101383.28;;;20.42;nan
2875;BME280;1445;52.600;13.328;2023-07-09T02:34:01;101375.88;;;20.22;nan
2875;BME280;1445;52.600;13.328;2023-07-09T02:36:28;101380.31;;;20.23;nan
2875;BME280;1445;52.600;13.328;2023-07-09T02:38:53;101384.16;;;20.06;nan
2875;BME280;1445;52.600;13.328;2023-07-09T02:41:19;101381.16;;;19.87;nan
2875;BME280;1445;52.600;13.328;2023-07-09T02:43:44;101381.38;;;19.82;nan
2875;BME280;1445;52.600;13.328;2023-07-09T02:46:10;101392.31;;;19.74;nan
2875;BME280;1445;52.600;13.328;2023-07-09T02:48:35;101391.25;;;19.79;nan
2875;BME280;1445;52.600;13.328;2023-07-09T02:51:00;101399.66;;;19.67;nan
2875;BME280;1445;52.600;13.328;2023-07-09T02:53:27;101390.09;;;19.68;nan
2875;BME280;1445;52.600;13.328;2023-07-09T02:55:52;101391.63;;;19.44;nan
2875;BME280;1445;52.600;13.328;2023-07-09T02:58:18;101392.75;;;19.19;nan
2875;BME280;1445;52.600;13.328;2023-07-09T03:00:43;101404.44;;;19.00;nan
2875;BME280;1445;52.600;13.328;2023-07-09T03:03:09;101389.56;;;19.08;nan
2875;BME280;1445;52.600;13.328;2023-07-09T03:05:34;101396.13;;;18.91;nan
2875;BME280;1445;52.600;13.328;2023-07-09T03:07:59;101395.88;;;18.84;nan
2875;BME280;1445;52.600;13.328;2023-07-09T03:10:25;101399.94;;;18.66;nan
2875;BME280;1445;52.600;13.328;2023-07-09T03:12:50;101407.13;;;18.75;nan
2875;BME280;1445;52.600;13.328;2023-07-09T03:15:16;101413.66;;;18.79;nan
2875;BME280;1445;52.600;13.328;2023-07-09T03:17:41;101404.66;;;18.74;nan
2875;BME280;1445;52.600;13.328;2023-07-09T03:20:06;101401.88;;;18.74;nan
2875;BME280;1445;52.600;13.328;2023-07-09T03:22:33;101407.28;;;18.70;nan
2875;BME280;1445;52.600;13.328;2023-07-09T03:24:58;101404.47;;;18.79;nan
2875;BME280;1445;52.600;13.328;2023-07-09T03:27:23;101408.81;;;18.68;nan
2875;BME280;1445;52.600;13.328;2023-07-09T03:29:49;101407.44;;;18.74;nan
2875;BME280;1445;52.600;13.328;2023-07-09T03:32:14;101405.53;;;18.66;nan
2875;BME280;1445;52.600;13.328;2023-07-09T03:34:40;101406.63;;;18.73;nan
2875;BME280;1445;52.600;13.328;2023-07-09T03:37:05;101398.88;;;18.79;nan
2875;BME280;1445;52.600;13.328;2023-07-09T03:39:30;101410.06;;;18.79;nan
2875;BME280;1445;52.600;13.328;2023-07-09T03:41:56;101407.25;;;18.79;nan
2875;BME280;1445;52.600;13.328;2023-07-09T03:44:21;101402.75;;;18.87;nan
2875;BME280;1445;52.600;13.328;2023-07-09T03:46:46;101400.44;;;18.89;nan
2875;BME280;1445;52.600;13.328;2023-07-09T03:49:12;101406.84;;;18.89;nan
2875;BME280;1445;52.600;13.328;2023-07-09T03:51:37;101407.31;;;18.91;nan
2875;BME280;1445;52.600;13.328;2023-07-09T03:54:03;101408.59;;;18.94;nan
2875;BME280;1445;52.600;13.328;2023-07-09T03:56:28;101411.19;;;18.99;nan
2875;BME280;1445;52.600;13.328;2023-07-09T03:58:55;101417.59;;;18.99;nan
2875;BME280;1445;52.600;13.328;2023-07-09T04:01:20;101414.13;;;19.02;nan
2875;BME280;1445;52.600;13.328;2023-07-09T04:03:45;101417.47;;;18.96;nan
2875;BME280;1445;52.600;13.328;2023-07-09T04:06:11;101414.69;;;18.75;nan
2875;BME280;1445;52.600;13.328;2023-07-09T04:08:36;101415.63;;;18.79;nan
2875;BME280;1445;52.600;13.328;2023-07-09T04:11:02;101420.94;;;18.93;nan
2875;BME280;1445;52.600;13.328;2023-07-09T04:13:28;101423.91;;;19.08;nan
2875;BME280;1445;52.600;13.328;2023-07-09T04:15:54;101426.03;;;19.12;nan
2875;BME280;1445;52.600;13.328;2023-07-09T04:18:20;101419.41;;;19.16;nan
2875;BME280;1445;52.600;13.328;2023-07-09T04:20:49;101420.50;;;19.24;nan
2875;BME280;1445;52.600;13.328;2023-07-09T04:23:15;101421.25;;;19.12;nan
2875;BME280;1445;52.600;13.328;2023-07-09T04:25:40;101420.75;;;19.31;nan
2875;BME280;1445;52.600;13.328;2023-07-09T04:28:05;101420.41;;;19.33;nan
2875;BME280;1445;52.600;13.328;2023-07-09T04:30:31;101416.22;;;19.39;nan
2875;BME280;1445;52.600;13.328;2023-07-09T04:32:57;101423.31;;;19.36;nan
2875;BME280;1445;52.600;13.328;2023-07-09T04:35:22;101418.41;;;19.33;nan
2875;BME280;1445;52.600;13.328;2023-07-09T04:37:49;101419.28;;;19.58;nan
2875;BME280;1445;52.600;13.328;2023-07-09T04:40:14;101416.44;;;19.67;nan
2875;BME280;1445;52.600;13.328;2023-07-09T04:42:40;101417.38;;;19.71;nan
2875;BME280;1445;52.600;13.328;2023-07-09T04:45:08;101417.53;;;19.53;nan
2875;BME280;1445;52.600;13.328;2023-07-09T04:47:34;101416.06;;;19.68;nan
2875;BME280;1445;52.600;13.328;2023-07-09T04:49:59;101422.41;;;19.77;nan
2875;BME280;1445;52.600;13.328;2023-07-09T04:52:25;101422.47;;;19.69;nan
2875;BME280;1445;52.600;13.328;2023-07-09T04:54:50;101424.38;;;19.89;nan
2875;BME280;1445;52.600;13.328;2023-07-09T04:57:16;101429.75;;;19.94;nan
2875;BME280;1445;52.600;13.328;2023-07-09T04:59:42;101428.59;;;20.08;nan
2875;BME280;1445;52.600;13.328;2023-07-09T05:02:07;101426.16;;;20.18;nan
2875;BME280;1445;52.600;13.328;2023-07-09T05:04:33;101422.28;;;20.23;nan
2875;BME280;1445;52.600;13.328;2023-07-09T05:06:59;101435.81;;;20.21;nan
2875;BME280;1445;52.600;13.328;2023-07-09T05:09:24;101433.25;;;20.28;nan
2875;BME280;1445;52.600;13.328;2023-07-09T05:11:50;101419.38;;;20.44;nan
2875;BME280;1445;52.600;13.328;2023-07-09T05:14:19;101414.00;;;20.51;nan
2875;BME280;1445;52.600;13.328;2023-07-09T05:16:44;101409.06;;;20.48;nan
2875;BME280;1445;52.600;13.328;2023-07-09T05:19:11;101409.69;;;20.54;nan
2875;BME280;1445;52.600;13.328;2023-07-09T05:21:36;101419.56;;;20.63;nan
2875;BME280;1445;52.600;13.328;2023-07-09T05:24:02;101418.38;;;20.77;nan
2875;BME280;1445;52.600;13.328;2023-07-09T05:26:27;101428.41;;;20.78;nan
2875;BME280;1445;52.600;13.328;2023-07-09T05:28:52;101425.28;;;20.79;nan
2875;BME280;1445;52.600;13.328;2023-07-09T05:31:18;101422.69;;;20.86;nan
2875;BME280;1445;52.600;13.328;2023-07-09T05:33:44;101428.22;;;20.98;nan
2875;BME280;1445;52.600;13.328;2023-07-09T05:36:09;101428.81;;;21.04;nan
2875;BME280;1445;52.600;13.328;2023-07-09T05:38:43;101434.88;;;21.06;nan
2875;BME280;1445;52.600;13.328;2023-07-09T05:41:09;101420.66;;;21.27;nan
2875;BME280;1445;52.600;13.328;2023-07-09T05:43:35;101418.50;;;21.36;nan
2875;BME280;1445;52.600;13.328;2023-07-09T05:46:04;101421.59;;;21.47;nan
2875;BME280;1445;52.600;13.328;2023-07-09T05:48:30;101425.16;;;21.60;nan
2875;BME280;1445;52.600;13.328;2023-07-09T05:50:55;101431.97;;;21.59;nan
2875;BME280;1445;52.600;13.328;2023-07-09T05:53:22;101429.97;;;21.75;nan
2875;BME280;1445;52.600;13.328;2023-07-09T05:55:47;101427.06;;;22.03;nan
2875;BME280;1445;52.600;13.328;2023-07-09T05:58:13;101427.91;;;22.20;nan
2875;BME280;1445;52.600;13.328;2023-07-09T06:00:38;101431.97;;;22.22;nan
2875;BME280;1445;52.600;13.328;2023-07-09T06:03:06;101424.63;;;22.33;nan
2875;BME280;1445;52.600;13.328;2023-07-09T06:05:35;101434.03;;;22.41;nan
2875;BME280;1445;52.600;13.328;2023-07-09T06:08:02;101428.06;;;22.62;nan
2875;BME280;1445;52.600;13.328;2023-07-09T06:10:28;101416.75;;;22.78;nan
2875;BME280;1445;52.600;13.328;2023-07-09T06:12:53;101425.56;;;22.92;nan
2875;BME280;1445;52.600;13.328;2023-07-09T06:15:19;101421.69;;;23.00;nan
2875;BME280;1445;52.600;13.328;2023-07-09T06:17:44;101423.41;;;23.05;nan
2875;BME280;1445;52.600;13.328;2023-07-09T06:20:10;101432.78;;;23.13;nan
2875;BME280;1445;52.600;13.328;2023-07-09T06:22:36;101430.88;;;23.17;nan
2875;BME280;1445;52.600;13.328;2023-07-09T06:25:01;101439.06;;;23.25;nan
2875;BME280;1445;52.600;13.328;2023-07-09T06:27:27;101434.03;;;23.34;nan
2875;BME280;1445;52.600;13.328;2023-07-09T06:29:52;101434.13;;;23.38;nan
2875;BME280;1445;52.600;13.328;2023-07-09T06:32:18;101430.25;;;23.46;nan
2875;BME280;1445;52.600;13.328;2023-07-09T06:34:43;101425.94;;;23.52;nan
2875;BME280;1445;52.600;13.328;2023-07-09T06:37:08;101434.88;;;23.58;nan
2875;BME280;1445;52.600;13.328;2023-07-09T06:39:34;101436.75;;;23.70;nan
2875;BME280;1445;52.600;13.328;2023-07-09T06:41:59;101435.28;;;23.79;nan
2875;BME280;1445;52.600;13.328;2023-07-09T06:44:25;101436.31;;;23.91;nan
2875;BME280;1445;52.600;13.328;2023-07-09T06:46:50;101429.16;;;23.97;nan
2875;BME280;1445;52.600;13.328;2023-07-09T06:49:16;101435.00;;;24.11;nan
2875;BME280;1445;52.600;13.328;2023-07-09T06:51:41;101435.13;;;24.18;nan
2875;BME280;1445;52.600;13.328;2023-07-09T06:54:08;101439.81;;;24.34;nan
2875;BME280;1445;52.600;13.328;2023-07-09T06:56:34;101430.44;;;24.52;nan
2875;BME280;1445;52.600;13.328;2023-07-09T06:58:59;101440.59;;;24.57;nan
2875;BME280;1445;52.600;13.328;2023-07-09T07:01:25;101445.19;;;24.69;nan
2875;BME280;1445;52.600;13.328;2023-07-09T07:03:50;101440.84;;;24.75;nan
2875;BME280;1445;52.600;13.328;2023-07-09T07:06:16;101443.28;;;24.76;nan
2875;BME280;1445;52.600;13.328;2023-07-09T07:08:41;101437.88;;;24.94;nan
2875;BME280;1445;52.600;13.328;2023-07-09T07:11:07;101431.50;;;25.01;nan
2875;BME280;1445;52.600;13.328;2023-07-09T07:13:35;101442.94;;;25.12;nan
2875;BME280;1445;52.600;13.328;2023-07-09T07:16:02;101444.19;;;25.14;nan
2875;BME280;1445;52.600;13.328;2023-07-09T07:18:28;101444.78;;;25.31;nan
2875;BME280;1445;52.600;13.328;2023-07-09T07:20:54;101440.03;;;25.38;nan
2875;BME280;1445;52.600;13.328;2023-07-09T07:23:19;101445.31;;;25.43;nan
2875;BME280;1445;52.600;13.328;2023-07-09T07:25:46;101434.22;;;25.61;nan
2875;BME280;1445;52.600;13.328;2023-07-09T07:28:11;101437.88;;;25.65;nan
2875;BME280;1445;52.600;13.328;2023-07-09T07:30:37;101439.59;;;25.74;nan
2875;BME280;1445;52.600;13.328;2023-07-09T07:33:03;101444.84;;;25.75;nan
2875;BME280;1445;52.600;13.328;2023-07-09T07:35:28;101442.16;;;25.86;nan
2875;BME280;1445;52.600;13.328;2023-07-09T07:37:53;101438.56;;;25.92;nan
2875;BME280;1445;52.600;13.328;2023-07-09T07:40:19;101440.72;;;26.06;nan
2875;BME280;1445;52.600;13.328;2023-07-09T07:42:44;101435.56;;;26.19;nan
2875;BME280;1445;52.600;13.328;2023-07-09T07:45:11;101442.06;;;26.23;nan
2875;BME280;1445;52.600;13.328;2023-07-09T07:47:36;101434.44;;;26.31;nan
2875;BME280;1445;52.600;13.328;2023-07-09T07:50:02;101436.88;;;26.36;nan
2875;BME280;1445;52.600;13.328;2023-07-09T07:52:28;101430.91;;;26.45;nan
2875;BME280;1445;52.600;13.328;2023-07-09T07:54:54;101440.25;;;26.52;nan
2875;BME280;1445;52.600;13.328;2023-07-09T07:57:19;101424.13;;;26.60;nan
2875;BME280;1445;52.600;13.328;2023-07-09T07:59:44;101433.47;;;26.68;nan
2875;BME280;1445;52.600;13.328;2023-07-09T08:02:13;101436.03;;;26.94;nan
2875;BME280;1445;52.600;13.328;2023-07-09T08:04:42;101439.31;;;27.00;nan
2875;BME280;1445;52.600;13.328;2023-07-09T08:07:08;101436.09;;;27.08;nan
2875;BME280;1445;52.600;13.328;2023-07-09T08:09:34;101433.69;;;27.10;nan
2875;BME280;1445;52.600;13.328;2023-07-09T08:12:01;101430.16;;;27.31;nan
2875;BME280;1445;52.600;13.328;2023-07-09T08:14:30;101428.94;;;27.40;nan
2875;BME280;1445;52.600;13.328;2023-07-09T08:16:55;101429.75;;;27.44;nan
2875;BME280;1445;52.600;13.328;2023-07-09T08:19:21;101437.03;;;27.48;nan
2875;BME280;1445;52.600;13.328;2023-07-09T08:21:46;101435.06;;;27.63;nan
2875;BME280;1445;52.600;13.328;2023-07-09T08:24:13;101440.31;;;27.61;nan
2875;BME280;1445;52.600;13.328;2023-07-09T08:26:39;101433.84;;;27.71;nan
2875;BME280;1445;52.600;13.328;2023-07-09T08:29:05;101434.31;;;27.95;nan
2875;BME280;1445;52.600;13.328;2023-07-09T08:31:30;101427.00;;;27.90;nan
2875;BME280;1445;52.600;13.328;2023-07-09T08:33:56;101432.66;;;27.97;nan
2875;BME280;1445;52.600;13.328;2023-07-09T08:36:21;101430.25;;;28.03;nan
2875;BME280;1445;52.600;13.328;2023-07-09T08:38:47;101430.22;;;28.24;nan
2875;BME280;1445;52.600;13.328;2023-07-09T08:41:26;101429.84;;;28.33;nan
2875;BME280;1445;52.600;13.328;2023-07-09T08:44:13;101429.41;;;28.31;nan
2875;BME280;1445;52.600;13.328;2023-07-09T08:47:07;101432.13;;;28.88;nan
2875;BME280;1445;52.600;13.328;2023-07-09T08:49:59;101433.72;;;29.04;nan
2875;BME280;1445;52.600;13.328;2023-07-09T08:52:31;101426.78;;;29.12;nan
2875;BME280;1445;52.600;13.328;2023-07-09T08:55:04;101421.06;;;29.22;nan
2875;BME280;1445;52.600;13.328;2023-07-09T08:57:39;101418.44;;;29.53;nan
2875;BME280;1445;52.600;13.328;2023-07-09T09:00:23;101425.69;;;29.61;nan
2875;BME280;1445;52.600;13.328;2023-07-09T09:02:57;101420.66;;;29.83;nan
2875;BME280;1445;52.600;13.328;2023-07-09T09:05:25;101417.88;;;30.25;nan
2875;BME280;1445;52.600;13.328;2023-07-09T09:07:57;101421.16;;;30.23;nan
2875;BME280;1445;52.600;13.328;2023-07-09T09:10:53;101418.19;;;30.37;nan
2875;BME280;1445;52.600;13.328;2023-07-09T09:13:25;101420.91;;;30.48;nan
2875;BME280;1445;52.600;13.328;2023-07-09T09:15:55;101422.22;;;30.40;nan
2875;BME280;1445;52.600;13.328;2023-07-09T09:18:26;101416.22;;;30.69;nan
2875;BME280;1445;52.600;13.328;2023-07-09T09:20:56;101416.47;;;30.81;nan
2875;BME280;1445;52.600;13.328;2023-07-09T09:23:28;101408.63;;;30.93;nan
2875;BME280;1445;52.600;13.328;2023-07-09T09:25:59;101418.50;;;31.46;nan
2875;BME280;1445;52.600;13.328;2023-07-09T09:28:27;101414.78;;;31.49;nan
2875;BME280;1445;52.600;13.328;2023-07-09T09:30:52;101413.69;;;31.66;nan
2875;BME280;1445;52.600;13.328;2023-07-09T09:33:18;101420.81;;;32.05;nan
2875;BME280;1445;52.600;13.328;2023-07-09T09:35:44;101424.16;;;32.23;nan
2875;BME280;1445;52.600;13.328;2023-07-09T09:38:16;101418.50;;;32.43;nan
2875;BME280;1445;52.600;13.328;2023-07-09T09:40:42;101420.44;;;32.70;nan
2875;BME280;1445;52.600;13.328;2023-07-09T09:43:17;101417.84;;;33.15;nan
2875;BME280;1445;52.600;13.328;2023-07-09T09:45:45;101414.31;;;33.28;nan
2875;BME280;1445;52.600;13.328;2023-07-09T09:48:16;101416.84;;;33.42;nan
2875;BME280;1445;52.600;13.328;2023-07-09T09:50:42;101421.28;;;33.26;nan
2875;BME280;1445;52.600;13.328;2023-07-09T09:53:22;101419.69;;;33.06;nan
2875;BME280;1445;52.600;13.328;2023-07-09T09:55:48;101419.41;;;33.89;nan
2875;BME280;1445;52.600;13.328;2023-07-09T09:58:17;101420.25;;;34.35;nan
2875;BME280;1445;52.600;13.328;2023-07-09T10:00:51;101411.38;;;34.46;nan
2875;BME280;1445;52.600;13.328;2023-07-09T10:03:17;101421.13;;;34.19;nan
2875;BME280;1445;52.600;13.328;2023-07-09T10:05:55;101421.63;;;34.30;nan
2875;BME280;1445;52.600;13.328;2023-07-09T10:08:26;101416.66;;;34.47;nan
2875;BME280;1445;52.600;13.328;2023-07-09T10:10:58;101426.44;;;34.91;nan
2875;BME280;1445;52.600;13.328;2023-07-09T10:13:34;101425.03;;;35.12;nan
2875;BME280;1445;52.600;13.328;2023-07-09T10:16:29;101414.75;;;34.86;nan
2875;BME280;1445;52.600;13.328;2023-07-09T10:22:16;101414.72;;;36.04;nan
2875;BME280;1445;52.600;13.328;2023-07-09T10:25:20;101416.28;;;36.53;nan
2875;BME280;1445;52.600;13.328;2023-07-09T10:30:56;101418.38;;;36.96;nan
2875;BME280;1445;52.600;13.328;2023-07-09T10:39:47;101410.03;;;37.20;nan
2875;BME280;1445;52.600;13.328;2023-07-09T10:42:22;101402.22;;;38.02;nan
2875;BME280;1445;52.600;13.328;2023-07-09T10:44:55;101396.28;;;38.14;nan
2875;BME280;1445;52.600;13.328;2023-07-09T10:47:33;101404.09;;;38.78;nan
2875;BME280;1445;52.600;13.328;2023-07-09T10:50:01;101397.41;;;38.72;nan
2875;BME280;1445;52.600;13.328;2023-07-09T10:52:31;101402.75;;;39.16;nan
2875;BME280;1445;52.600;13.328;2023-07-09T10:55:12;101390.19;;;38.77;nan
2875;BME280;1445;52.600;13.328;2023-07-09T10:57:53;101402.66;;;38.92;nan
2875;BME280;1445;52.600;13.328;2023-07-09T11:00:24;101393.69;;;39.42;nan
2875;BME280;1445;52.600;13.328;2023-07-09T11:03:00;101395.13;;;39.79;nan
2875;BME280;1445;52.600;13.328;2023-07-09T11:05:27;101388.66;;;40.33;nan
2875;BME280;1445;52.600;13.328;2023-07-09T11:08:20;101388.63;;;40.18;nan
2875;BME280;1445;52.600;13.328;2023-07-09T11:10:52;101395.09;;;40.66;nan
2875;BME280;1445;52.600;13.328;2023-07-09T11:15:57;101396.09;;;41.22;nan
2875;BME280;1445;52.600;13.328;2023-07-09T11:18:26;101393.78;;;41.27;nan
2875;BME280;1445;52.600;13.328;2023-07-09T11:21:12;101381.28;;;41.85;nan
2875;BME280;1445;52.600;13.328;2023-07-09T11:23:54;101389.63;;;41.42;nan
2875;BME280;1445;52.600;13.328;2023-07-09T11:28:53;101377.66;;;41.90;nan
2875;BME280;1445;52.600;13.328;2023-07-09T11:31:31;101368.50;;;42.18;nan
2875;BME280;1445;52.600;13.328;2023-07-09T11:34:02;101367.16;;;42.13;nan
2875;BME280;1445;52.600;13.328;2023-07-09T11:36:33;101360.25;;;42.57;nan
2875;BME280;1445;52.600;13.328;2023-07-09T11:38:59;101361.72;;;42.99;nan
2875;BME280;1445;52.600;13.328;2023-07-09T11:46:35;101358.44;;;42.86;nan
2875;BME280;1445;52.600;13.328;2023-07-09T11:49:02;101355.59;;;43.61;nan
2875;BME280;1445;52.600;13.328;2023-07-09T11:51:45;101346.41;;;44.39;nan
2875;BME280;1445;52.600;13.328;2023-07-09T11:54:12;101344.53;;;44.36;nan
2875;BME280;1445;52.600;13.328;2023-07-09T11:56:39;101332.41;;;44.37;nan
2875;BME280;1445;52.600;13.328;2023-07-09T11:59:04;101346.16;;;44.59;nan
2875;BME280;1445;52.600;13.328;2023-07-09T12:01:56;101337.44;;;44.48;nan
2875;BME280;1445;52.600;13.328;2023-07-09T12:04:32;101338.50;;;45.01;nan
2875;BME280;1445;52.600;13.328;2023-07-09T12:07:00;101343.03;;;44.91;nan
2875;BME280;1445;52.600;13.328;2023-07-09T12:09:32;101341.94;;;44.99;nan
2875;BME280;1445;52.600;13.328;2023-07-09T12:11:57;101335.69;;;45.82;nan
2875;BME280;1445;52.600;13.328;2023-07-09T12:14:23;101334.25;;;45.30;nan
2875;BME280;1445;52.600;13.328;2023-07-09T12:16:51;101330.50;;;45.58;nan
2875;BME280;1445;52.600;13.328;2023-07-09T12:19:24;101329.72;;;45.40;nan
2875;BME280;1445;52.600;13.328;2023-07-09T12:21:57;101327.63;;;44.51;nan
2875;BME280;1445;52.600;13.328;2023-07-09T12:24:27;101327.91;;;44.31;nan
2875;BME280;1445;52.600;13.328;2023-07-09T12:26:57;101319.22;;;45.15;nan
2875;BME280;1445;52.600;13.328;2023-07-09T12:29:33;101315.38;;;45.59;nan
2875;BME280;1445;52.600;13.328;2023-07-09T12:32:03;101308.06;;;46.00;nan
2875;BME280;1445;52.600;13.328;2023-07-09T12:34:31;101312.88;;;45.91;nan
2875;BME280;1445;52.600;13.328;2023-07-09T12:36:57;101309.19;;;46.32;nan
2875;BME280;1445;52.600;13.328;2023-07-09T12:39:27;101300.72;;;46.70;nan
2875;BME280;1445;52.600;13.328;2023-07-09T12:41:55;101298.78;;;46.43;nan
2875;BME280;1445;52.600;13.328;2023-07-09T12:44:23;101302.47;;;46.49;nan
2875;BME280;1445;52.600;13.328;2023-07-09T12:46:51;101308.25;;;45.55;nan
2875;BME280;1445;52.600;13.328;2023-07-09T12:49:26;101303.25;;;44.26;nan
2875;BME280;1445;52.600;13.328;2023-07-09T12:51:55;101302.94;;;45.59;nan
2875;BME280;1445;52.600;13.328;2023-07-09T12:54:21;101287.75;;;45.88;nan
2875;BME280;1445;52.600;13.328;2023-07-09T12:56:52;101283.91;;;46.46;nan
2875;BME280;1445;52.600;13.328;2023-07-09T12:59:37;101286.53;;;46.50;nan
2875;BME280;1445;52.600;13.328;2023-07-09T13:02:21;101293.88;;;46.26;nan
2875;BME280;1445;52.600;13.328;2023-07-09T13:04:47;101282.63;;;46.42;nan
2875;BME280;1445;52.600;13.328;2023-07-09T13:07:33;101278.97;;;47.20;nan
2875;BME280;1445;52.600;13.328;2023-07-09T13:10:14;101271.47;;;47.49;nan
2875;BME280;1445;52.600;13.328;2023-07-09T13:12:40;101265.09;;;47.51;nan
2875;BME280;1445;52.600;13.328;2023-07-09T13:15:19;101274.75;;;48.21;nan
2875;BME280;1445;52.600;13.328;2023-07-09T13:17:45;101269.16;;;48.56;nan
2875;BME280;1445;52.600;13.328;2023-07-09T13:20:10;101266.19;;;47.48;nan
2875;BME280;1445;52.600;13.328;2023-07-09T13:22:36;101273.66;;;48.24;nan
2875;BME280;1445;52.600;13.328;2023-07-09T13:25:01;101269.81;;;48.48;nan
2875;BME280;1445;52.600;13.328;2023-07-09T13:27:26;101266.44;;;49.03;nan
2875;BME280;1445;52.600;13.328;2023-07-09T13:29:52;101256.00;;;48.30;nan
2875;BME280;1445;52.600;13.328;2023-07-09T13:32:18;101262.88;;;48.33;nan
2875;BME280;1445;52.600;13.328;2023-07-09T13:34:43;101266.78;;;48.03;nan
2875;BME280;1445;52.600;13.328;2023-07-09T13:37:15;101256.50;;;48.15;nan
2875;BME280;1445;52.600;13.328;2023-07-09T13:39:41;101262.03;;;48.51;nan
2875;BME280;1445;52.600;13.328;2023-07-09T13:42:13;101261.03;;;48.48;nan
2875;BME280;1445;52.600;13.328;2023-07-09T13:44:40;101263.41;;;47.99;nan
2875;BME280;1445;52.600;13.328;2023-07-09T13:47:18;101263.28;;;47.67;nan
2875;BME280;1445;52.600;13.328;2023-07-09T13:49:45;101252.75;;;48.34;nan
2875;BME280;1445;52.600;13.328;2023-07-09T13:52:17;101254.94;;;47.95;nan
2875;BME280;1445;52.600;13.328;2023-07-09T13:54:44;101255.81;;;48.41;nan
2875;BME280;1445;52.600;13.328;2023-07-09T13:57:14;101256.63;;;48.87;nan